createdAt,value
2023-05-15T00:02:15.803Z,100443.32
2023-05-15T00:05:22.306Z,100439.45
2023-05-15T00:08:29.467Z,100439.45
2023-05-15T00:11:35.806Z,100434.33
2023-05-15T00:14:41.233Z,100437.14
2023-05-15T00:17:47.722Z,100436.09
2023-05-15T00:20:53.010Z,100437.41
2023-05-15T00:24:00.846Z,100429.16
2023-05-15T00:27:06.843Z,100441.65
2023-05-15T00:30:12.637Z,100440.48
2023-05-15T00:33:17.301Z,100445.72
2023-05-15T00:36:24.769Z,100447.67
2023-05-15T00:39:29.317Z,100443.32
2023-05-15T00:42:34.390Z,100445.39
2023-05-15T00:45:40.289Z,100453.20
2023-05-15T00:48:46.756Z,100444.75
2023-05-15T00:51:45.213Z,100450.52
2023-05-15T00:54:40.021Z,100445.54
2023-05-15T00:57:45.909Z,100446.27
2023-05-15T01:00:50.945Z,100449.31
2023-05-15T01:03:56.373Z,100451.57
2023-05-15T01:07:02.370Z,100451.16
2023-05-15T01:10:07.724Z,100450.11
2023-05-15T01:13:13.757Z,100449.31
2023-05-15T01:16:14.065Z,100451.01
2023-05-15T01:19:06.973Z,100457.19
2023-05-15T01:22:40.431Z,100454.73
2023-05-15T01:26:00.573Z,100455.47
2023-05-15T01:29:12.263Z,100451.56
2023-05-15T01:32:26.178Z,100449.56
2023-05-15T01:36:07.130Z,100446.48
2023-05-15T01:39:14.354Z,100441.63
2023-05-15T01:42:29.067Z,100446.70
2023-05-15T01:45:33.741Z,100444.86
2023-05-15T01:48:39.188Z,100445.10
2023-05-15T01:51:45.008Z,100440.52
2023-05-15T01:54:50.501Z,100435.83
2023-05-15T01:57:56.430Z,100432.60
2023-05-15T02:01:02.178Z,100435.13
2023-05-15T02:04:07.492Z,100432.81
2023-05-15T02:07:12.852Z,100429.35
2023-05-15T02:10:18.724Z,100426.04
2023-05-15T02:13:25.693Z,100429.87
2023-05-15T02:16:31.467Z,100427.70
2023-05-15T02:19:38.109Z,100429.43
2023-05-15T02:22:43.457Z,100427.05
2023-05-15T02:26:12.586Z,100418.36
2023-05-15T02:29:33.436Z,100424.23
2023-05-15T02:33:18.220Z,100412.86
2023-05-15T02:36:25.433Z,100408.64
2023-05-15T02:39:31.968Z,100412.76
2023-05-15T02:42:38.338Z,100408.25
2023-05-15T02:45:43.841Z,100408.08
2023-05-15T02:48:52.345Z,100409.33
2023-05-15T02:51:57.802Z,100413.00
2023-05-15T02:55:03.102Z,100413.79
2023-05-15T02:58:07.806Z,100421.08
2023-05-15T03:01:14.216Z,100417.27
2023-05-15T03:04:20.313Z,100420.31
2023-05-15T03:07:25.766Z,100417.59
2023-05-15T03:10:31.547Z,100414.20
2023-05-15T03:13:36.530Z,100420.29
2023-05-15T03:16:44.101Z,100418.55
2023-05-15T03:19:49.670Z,100420.48
2023-05-15T03:22:56.157Z,100423.10
2023-05-15T03:26:02.047Z,100426.73
2023-05-15T03:29:07.405Z,100419.39
2023-05-15T03:32:14.182Z,100420.89
2023-05-15T03:35:20.704Z,100425.77
2023-05-15T03:38:26.283Z,100423.36
2023-05-15T03:41:34.812Z,100427.91
2023-05-15T03:44:40.927Z,100424.40
2023-05-15T03:47:46.653Z,100432.77
2023-05-15T03:50:53.398Z,100430.59
2023-05-15T03:54:00.823Z,100439.38
2023-05-15T03:57:07.019Z,100439.95
2023-05-15T04:00:16.432Z,100434.85
2023-05-15T04:03:22.640Z,100442.70
2023-05-15T04:06:29.939Z,100437.58
2023-05-15T04:09:35.816Z,100434.66
2023-05-15T04:12:41.019Z,100439.59
2023-05-15T04:15:47.250Z,100429.80
2023-05-15T04:18:53.733Z,100433.09
2023-05-15T04:21:59.307Z,100441.44
2023-05-15T04:25:04.638Z,100437.52
2023-05-15T04:28:10.578Z,100434.41
2023-05-15T04:31:15.337Z,100426.63
2023-05-15T04:34:20.893Z,100439.52
2023-05-15T04:37:26.580Z,100450.53
2023-05-15T04:40:31.462Z,100451.86
2023-05-15T04:43:39.345Z,100452.70
2023-05-15T04:46:46.624Z,100450.56
2023-05-15T04:49:51.603Z,100443.97
2023-05-15T04:52:58.290Z,100444.41
2023-05-15T04:56:04.864Z,100447.70
2023-05-15T04:59:10.070Z,100441.67
2023-05-15T05:02:15.938Z,100440.61
2023-05-15T05:05:23.404Z,100439.21
2023-05-15T05:08:22.936Z,100436.53
2023-05-15T05:11:28.197Z,100440.16
2023-05-15T05:14:33.881Z,100441.94
2023-05-15T05:17:40.091Z,100447.88
2023-05-15T05:20:45.646Z,100448.46
2023-05-15T05:23:50.954Z,100453.35
2023-05-15T05:27:00.339Z,100451.41
2023-05-15T05:30:05.584Z,100453.67
2023-05-15T05:33:12.040Z,100457.09
2023-05-15T05:36:17.863Z,100456.31
2023-05-15T05:39:23.927Z,100456.55
2023-05-15T05:42:33.896Z,100459.12
2023-05-15T05:45:40.714Z,100458.63
2023-05-15T05:48:46.897Z,100452.75
2023-05-15T05:51:54.143Z,100458.66
2023-05-15T05:54:58.844Z,100456.50
2023-05-15T05:58:08.666Z,100453.97
2023-05-15T06:01:13.043Z,100456.80
2023-05-15T06:04:18.882Z,100450.05
2023-05-15T06:07:24.341Z,100456.52
2023-05-15T06:10:29.382Z,100457.92
2023-05-15T06:13:36.302Z,100452.02
2023-05-15T06:16:41.904Z,100453.16
2023-05-15T06:19:49.152Z,100448.08
2023-05-15T06:22:56.358Z,100447.25
2023-05-15T06:26:01.886Z,100452.86
2023-05-15T06:29:08.278Z,100448.36
2023-05-15T06:32:14.169Z,100443.27
2023-05-15T06:35:20.556Z,100445.20
2023-05-15T06:38:25.964Z,100441.58
2023-05-15T06:41:30.909Z,100442.45
2023-05-15T06:44:39.844Z,100436.45
2023-05-15T06:47:46.787Z,100432.99
2023-05-15T06:50:52.532Z,100431.55
2023-05-15T06:53:51.835Z,100432.55
2023-05-15T06:56:58.774Z,100437.52
2023-05-15T07:00:03.203Z,100439.63
2023-05-15T07:03:08.381Z,100439.59
2023-05-15T07:06:15.053Z,100431.58
2023-05-15T07:09:22.481Z,100429.00
2023-05-15T07:12:29.463Z,100430.84
2023-05-15T07:15:37.621Z,100433.48
2023-05-15T07:18:44.275Z,100434.22
2023-05-15T07:21:53.223Z,100429.38
2023-05-15T07:24:58.950Z,100433.23
2023-05-15T07:28:05.733Z,100421.84
2023-05-15T07:31:11.335Z,100425.29
2023-05-15T07:34:17.457Z,100421.13
2023-05-15T07:37:24.375Z,100425.62
2023-05-15T07:40:32.407Z,100423.73
2023-05-15T07:43:39.106Z,100420.91
2023-05-15T07:46:46.222Z,100419.23
2023-05-15T07:49:52.381Z,100413.86
2023-05-15T07:52:57.723Z,100408.34
2023-05-15T07:55:56.876Z,100409.34
2023-05-15T07:59:02.437Z,100412.50
2023-05-15T08:02:10.608Z,100410.95
2023-05-15T08:05:17.373Z,100415.42
2023-05-15T08:08:22.846Z,100411.62
2023-05-15T08:11:29.320Z,100411.27
2023-05-15T08:14:34.794Z,100416.26
2023-05-15T08:17:41.668Z,100413.49
2023-05-15T08:20:47.510Z,100407.88
2023-05-15T08:23:54.429Z,100410.78
2023-05-15T08:26:54.062Z,100408.35
2023-05-15T08:29:59.721Z,100398.17
2023-05-15T08:33:05.828Z,100403.75
2023-05-15T08:36:10.847Z,100401.03
2023-05-15T08:39:16.445Z,100394.62
2023-05-15T08:42:41.158Z,100394.14
2023-05-15T08:45:47.432Z,100390.34
2023-05-15T08:48:53.808Z,100385.53
2023-05-15T08:51:59.611Z,100385.69
2023-05-15T08:55:04.838Z,100382.46
2023-05-15T08:58:11.386Z,100383.37
2023-05-15T09:01:17.552Z,100381.59
2023-05-15T09:04:22.690Z,100376.89
2023-05-15T09:07:30.349Z,100369.30
2023-05-15T09:10:36.614Z,100365.66
2023-05-15T09:13:43.049Z,100359.84
2023-05-15T09:16:48.632Z,100358.44
2023-05-15T09:19:56.224Z,100351.88
2023-05-15T09:23:02.144Z,100357.77
2023-05-15T09:26:07.576Z,100352.55
2023-05-15T09:29:18.350Z,100354.63
2023-05-15T09:32:25.076Z,100359.56
2023-05-15T09:35:52.391Z,100351.23
2023-05-15T09:38:59.014Z,100353.53
2023-05-15T09:42:04.886Z,100349.65
2023-05-15T09:45:12.750Z,100350.22
2023-05-15T09:48:21.537Z,100346.64
2023-05-15T09:51:32.480Z,100348.16
2023-05-15T09:54:38.332Z,100338.36
2023-05-15T09:57:43.951Z,100334.98
2023-05-15T10:00:50.431Z,100326.70
2023-05-15T10:03:56.919Z,100331.11
2023-05-15T10:07:02.308Z,100329.50
2023-05-15T10:10:08.818Z,100328.47
2023-05-15T10:13:14.910Z,100332.70
2023-05-15T10:16:27.363Z,100331.63
2023-05-15T10:19:44.082Z,100325.98
2023-05-15T10:22:44.896Z,100320.30
2023-05-15T10:25:59.357Z,100325.98
2023-05-15T10:29:04.632Z,100322.76
2023-05-15T10:32:10.500Z,100329.25
2023-05-15T10:35:16.057Z,100320.04
2023-05-15T10:38:21.436Z,100315.22
2023-05-15T10:41:27.642Z,100318.05
2023-05-15T10:44:33.142Z,100313.16
2023-05-15T10:47:39.448Z,100314.48
2023-05-15T10:50:41.625Z,100312.47
2023-05-15T10:53:47.368Z,100307.33
2023-05-15T10:56:54.206Z,100302.98
2023-05-15T10:59:59.980Z,100308.40
2023-05-15T11:03:07.517Z,100310.67
2023-05-15T11:06:25.761Z,100304.59
2023-05-15T11:09:49.472Z,100302.16
2023-05-15T11:13:12.941Z,100300.96
2023-05-15T11:16:18.252Z,100302.46
2023-05-15T11:19:53.530Z,100303.95
2023-05-15T11:22:52.592Z,100300.45
2023-05-15T11:25:58.273Z,100300.20
2023-05-15T11:29:03.996Z,100300.60
2023-05-15T11:32:10.761Z,100309.05
2023-05-15T11:35:16.212Z,100309.05
2023-05-15T11:38:32.509Z,100306.60
2023-05-15T11:41:38.025Z,100309.53
2023-05-15T11:44:42.963Z,100315.23
2023-05-15T11:47:41.139Z,100320.08
2023-05-15T11:50:48.430Z,100319.16
2023-05-15T11:53:54.455Z,100314.47
2023-05-15T11:57:00.214Z,100312.53
2023-05-15T12:00:09.944Z,100314.62
2023-05-15T12:03:14.951Z,100321.14
2023-05-15T12:06:21.664Z,100320.53
2023-05-15T12:09:33.370Z,100311.59
2023-05-15T12:12:38.883Z,100308.73
2023-05-15T12:15:44.566Z,100307.60
2023-05-15T12:18:50.666Z,100306.84
2023-05-15T12:22:01.915Z,100302.84
2023-05-15T12:25:00.897Z,100308.91
2023-05-15T12:28:09.061Z,100308.91
2023-05-15T12:31:14.775Z,100304.02
2023-05-15T12:34:20.734Z,100306.16
2023-05-15T12:37:29.686Z,100299.65
2023-05-15T12:40:35.962Z,100287.80
2023-05-15T12:43:41.976Z,100289.47
2023-05-15T12:46:47.874Z,100285.86
2023-05-15T12:49:56.457Z,100284.50
2023-05-15T12:53:12.051Z,100272.15
2023-05-15T12:56:17.529Z,100285.18
2023-05-15T12:59:25.471Z,100275.77
2023-05-15T13:02:34.315Z,100270.66
2023-05-15T13:05:46.012Z,100270.07
2023-05-15T13:08:57.383Z,100267.69
2023-05-15T13:12:02.476Z,100274.18
2023-05-15T13:15:08.059Z,100273.84
2023-05-15T13:18:26.711Z,100265.90
2023-05-15T13:21:32.231Z,100275.31
2023-05-15T13:24:38.142Z,100268.48
2023-05-15T13:27:44.155Z,100273.29
2023-05-15T13:30:50.592Z,100272.77
2023-05-15T13:33:56.828Z,100273.51
2023-05-15T13:37:03.433Z,100270.83
2023-05-15T13:40:08.720Z,100271.54
2023-05-15T13:43:14.644Z,100272.83
2023-05-15T13:46:20.568Z,100270.80
2023-05-15T13:49:28.119Z,100281.17
2023-05-15T13:52:33.638Z,100275.31
2023-05-15T13:55:41.039Z,100277.32
2023-05-15T13:58:47.262Z,100271.39
2023-05-15T14:01:53.026Z,100274.63
2023-05-15T14:04:58.180Z,100273.66
2023-05-15T14:08:05.988Z,100272.80
2023-05-15T14:11:10.844Z,100263.83
2023-05-15T14:14:16.948Z,100271.80
2023-05-15T14:17:23.686Z,100267.09
2023-05-15T14:20:29.190Z,100264.80
2023-05-15T14:23:37.283Z,100264.06
2023-05-15T14:26:42.910Z,100269.92
2023-05-15T14:29:49.795Z,100278.16
2023-05-15T14:32:55.830Z,100272.95
2023-05-15T14:36:02.382Z,100278.53
2023-05-15T14:39:08.435Z,100279.75
2023-05-15T14:42:14.794Z,100282.54
2023-05-15T14:45:19.733Z,100272.80
2023-05-15T14:48:25.378Z,100273.86
2023-05-15T14:51:30.000Z,100271.91
2023-05-15T14:54:34.902Z,100272.62
2023-05-15T14:57:39.719Z,100269.52
2023-05-15T15:00:45.473Z,100275.05
2023-05-15T15:03:51.371Z,100272.42
2023-05-15T15:06:58.161Z,100274.16
2023-05-15T15:10:03.791Z,100274.39
2023-05-15T15:13:10.505Z,100268.00
2023-05-15T15:16:16.744Z,100271.88
2023-05-15T15:19:22.977Z,100279.94
2023-05-15T15:22:29.464Z,100276.92
2023-05-15T15:25:40.209Z,100275.73
2023-05-15T15:32:17.154Z,100268.09
2023-05-15T15:35:24.473Z,100271.48
2023-05-15T15:38:31.272Z,100267.66
2023-05-15T15:41:38.681Z,100277.17
2023-05-15T15:44:48.284Z,100269.39
2023-05-15T15:48:00.778Z,100278.19
2023-05-15T15:51:17.783Z,100275.33
2023-05-15T15:54:27.339Z,100272.25
2023-05-15T15:57:43.370Z,100263.80
2023-05-15T16:01:00.552Z,100266.81
2023-05-15T16:04:23.240Z,100265.34
2023-05-15T16:07:31.201Z,100261.35
2023-05-15T16:10:38.132Z,100275.39
2023-05-15T16:13:44.858Z,100267.90
2023-05-15T16:16:50.995Z,100272.52
2023-05-15T16:19:57.829Z,100273.88
2023-05-15T16:22:57.428Z,100273.16
2023-05-15T16:25:46.492Z,100270.34
2023-05-15T16:28:40.425Z,100271.62
2023-05-15T16:31:38.993Z,100271.59
2023-05-15T16:34:44.247Z,100271.61
2023-05-15T16:37:49.863Z,100273.21
2023-05-15T16:40:55.667Z,100272.91
2023-05-15T16:44:00.252Z,100278.14
2023-05-15T16:47:07.201Z,100280.59
2023-05-15T16:50:11.811Z,100280.95
2023-05-15T16:53:16.919Z,100281.94
2023-05-15T16:56:23.823Z,100281.53
2023-05-15T16:59:29.098Z,100288.89
2023-05-15T17:02:34.886Z,100295.64
2023-05-15T17:05:40.854Z,100293.55
2023-05-15T17:08:45.794Z,100291.59
2023-05-15T17:11:44.347Z,100292.41
2023-05-15T17:14:51.291Z,100299.69
2023-05-15T17:17:56.662Z,100298.00
2023-05-15T17:21:02.482Z,100300.66
2023-05-15T17:24:07.774Z,100301.85
2023-05-15T17:27:13.435Z,100304.32
2023-05-15T17:30:12.090Z,100297.02
2023-05-15T17:33:18.388Z,100304.26
2023-05-15T17:36:24.062Z,100302.22
2023-05-15T17:39:17.258Z,100310.38
2023-05-15T17:42:22.120Z,100305.94
2023-05-15T17:45:28.080Z,100311.44
2023-05-15T17:48:27.781Z,100308.83
2023-05-15T17:51:34.156Z,100316.31
2023-05-15T17:54:39.886Z,100319.28
2023-05-15T17:57:45.512Z,100320.08
2023-05-15T18:00:50.880Z,100320.84
2023-05-15T18:03:57.206Z,100321.03
2023-05-15T18:07:02.628Z,100316.20
2023-05-15T18:10:08.076Z,100318.19
2023-05-15T18:13:14.374Z,100325.13
2023-05-15T18:16:19.886Z,100330.15
2023-05-15T18:19:25.506Z,100332.83
2023-05-15T18:22:32.364Z,100337.30
2023-05-15T18:25:38.164Z,100335.78
2023-05-15T18:28:45.117Z,100337.05
2023-05-15T18:31:49.814Z,100331.63
2023-05-15T18:34:55.740Z,100328.06
2023-05-15T18:38:02.505Z,100330.05
2023-05-15T18:41:08.273Z,100332.64
2023-05-15T18:44:14.299Z,100328.10
2023-05-15T18:47:20.110Z,100326.66
2023-05-15T18:50:26.369Z,100331.75
2023-05-15T18:53:32.269Z,100328.39
2023-05-15T18:56:31.747Z,100330.94
2023-05-15T18:59:25.965Z,100329.55
2023-05-15T19:02:30.862Z,100333.32
2023-05-15T19:05:38.386Z,100336.84
2023-05-15T19:08:43.957Z,100339.62
2023-05-15T19:11:52.447Z,100344.02
2023-05-15T19:14:58.731Z,100336.88
2023-05-15T19:18:04.553Z,100337.59
2023-05-15T19:21:12.234Z,100344.64
2023-05-15T19:24:18.937Z,100346.20
2023-05-15T19:27:25.674Z,100346.12
2023-05-15T19:30:31.630Z,100358.91
2023-05-15T19:33:36.902Z,100365.05
2023-05-15T19:36:42.602Z,100354.40
2023-05-15T19:39:49.015Z,100350.05
2023-05-15T19:42:55.008Z,100354.02
2023-05-15T19:46:02.011Z,100349.13
2023-05-15T19:49:08.159Z,100350.97
2023-05-15T19:52:14.639Z,100354.63
2023-05-15T19:55:21.268Z,100351.48
2023-05-15T19:58:26.820Z,100354.54
2023-05-15T20:01:32.869Z,100350.55
2023-05-15T20:04:39.464Z,100352.02
2023-05-15T20:07:45.386Z,100350.52
2023-05-15T20:10:51.769Z,100352.75
2023-05-15T20:13:58.472Z,100349.27
2023-05-15T20:17:03.979Z,100362.41
2023-05-15T20:20:08.900Z,100362.70
2023-05-15T20:23:15.597Z,100362.59
2023-05-15T20:26:21.344Z,100364.77
2023-05-15T20:29:28.495Z,100354.56
2023-05-15T20:32:35.394Z,100362.94
2023-05-15T20:35:40.510Z,100363.27
2023-05-15T20:38:47.031Z,100362.94
2023-05-15T20:41:52.917Z,100368.31
2023-05-15T20:44:58.404Z,100379.52
2023-05-15T20:48:05.588Z,100379.44
2023-05-15T20:51:11.852Z,100372.73
2023-05-15T20:54:17.088Z,100372.50
2023-05-15T20:57:23.684Z,100371.59
2023-05-15T21:00:31.245Z,100373.41
2023-05-15T21:03:36.832Z,100376.31
2023-05-15T21:06:43.338Z,100374.20
2023-05-15T21:09:47.959Z,100370.43
2023-05-15T21:12:54.308Z,100370.05
2023-05-15T21:15:59.705Z,100373.06
2023-05-15T21:19:07.719Z,100372.68
2023-05-15T21:22:13.968Z,100373.82
2023-05-15T21:25:19.414Z,100370.17
2023-05-15T21:28:24.958Z,100378.72
2023-05-15T21:31:30.557Z,100374.38
2023-05-15T21:34:36.110Z,100380.56
2023-05-15T21:37:42.244Z,100370.78
2023-05-15T21:40:47.450Z,100370.28
2023-05-15T21:43:53.162Z,100360.59
2023-05-15T21:46:59.604Z,100375.34
2023-05-15T21:50:05.437Z,100371.39
2023-05-15T21:53:11.649Z,100371.40
2023-05-15T21:56:17.451Z,100372.20
2023-05-15T21:59:23.005Z,100373.95
2023-05-15T22:02:29.760Z,100380.52
2023-05-15T22:05:34.426Z,100377.09
2023-05-15T22:08:40.249Z,100376.37
2023-05-15T22:11:45.805Z,100384.53
2023-05-15T22:14:58.850Z,100382.23
2023-05-15T22:18:01.053Z,100386.27
2023-05-15T22:21:06.349Z,100385.55
2023-05-15T22:24:12.956Z,100387.50
2023-05-15T22:27:18.446Z,100386.98
2023-05-15T22:30:26.601Z,100383.92
2023-05-15T22:33:34.396Z,100384.98
2023-05-15T22:36:43.013Z,100384.98
2023-05-15T22:39:49.108Z,100391.20
2023-05-15T22:42:57.058Z,100384.52
2023-05-15T22:46:01.751Z,100382.03
2023-05-15T22:49:07.104Z,100387.24
2023-05-15T22:52:13.626Z,100388.43
2023-05-15T22:55:20.741Z,100385.58
2023-05-15T22:58:25.733Z,100387.52
2023-05-15T23:01:31.481Z,100382.51
2023-05-15T23:04:38.310Z,100385.16
2023-05-15T23:07:43.720Z,100383.30
2023-05-15T23:10:49.639Z,100375.02
2023-05-15T23:13:55.741Z,100376.31
2023-05-15T23:17:00.830Z,100371.98
2023-05-15T23:20:06.252Z,100374.42
2023-05-15T23:23:12.852Z,100367.76
2023-05-15T23:26:18.345Z,100371.67
2023-05-15T23:29:23.967Z,100363.63
2023-05-15T23:32:30.041Z,100367.27
2023-05-15T23:35:36.317Z,100357.06
2023-05-15T23:38:44.957Z,100361.41
2023-05-15T23:41:50.513Z,100362.13
2023-05-15T23:44:56.396Z,100356.95
2023-05-15T23:48:03.139Z,100354.18
2023-05-15T23:51:08.939Z,100355.56
2023-05-15T23:54:14.120Z,100353.95
2023-05-15T23:57:20.184Z,100346.45
